sensor_id;sensor_type;location;lat;lon;timestamp;temperature;humidity
61392;DHT22;47261;52.892;5.738;2023-07-20T00:01:21;16.40;99.80
61392;DHT22;47261;52.892;5.738;2023-07-20T00:03:47;16.40;99.90
61392;DHT22;47261;52.892;5.738;2023-07-20T00:06:21;16.40;99.90
61392;DHT22;47261;52.892;5.738;2023-07-20T00:08:46;16.40;99.90
61392;DHT22;47261;52.892;5.738;2023-07-20T00:11:12;16.30;99.90
61392;DHT22;47261;52.892;5.738;2023-07-20T00:13:39;16.30;99.90
61392;DHT22;47261;52.892;5.738;2023-07-20T00:16:05;16.30;99.90
61392;DHT22;47261;52.892;5.738;2023-07-20T00:18:30;16.20;99.80
61392;DHT22;47261;52.892;5.738;2023-07-20T00:20:56;16.20;99.80
61392;DHT22;47261;52.892;5.738;2023-07-20T00:23:22;16.10;99.90
61392;DHT22;47261;52.892;5.738;2023-07-20T00:25:48;16.10;99.90
61392;DHT22;47261;52.892;5.738;2023-07-20T00:28:14;16.10;99.90
61392;DHT22;47261;52.892;5.738;2023-07-20T00:30:40;16.00;99.90
61392;DHT22;47261;52.892;5.738;2023-07-20T00:33:11;16.00;99.90
61392;DHT22;47261;52.892;5.738;2023-07-20T00:35:37;15.90;99.90
61392;DHT22;47261;52.892;5.738;2023-07-20T00:38:04;15.90;99.90
61392;DHT22;47261;52.892;5.738;2023-07-20T00:40:36;15.90;99.90
61392;DHT22;47261;52.892;5.738;2023-07-20T00:43:02;15.80;99.90
61392;DHT22;47261;52.892;5.738;2023-07-20T00:45:29;15.80;99.90
61392;DHT22;47261;52.892;5.738;2023-07-20T00:47:55;15.70;99.90
61392;DHT22;47261;52.892;5.738;2023-07-20T00:50:22;15.70;99.90
61392;DHT22;47261;52.892;5.738;2023-07-20T00:52:49;15.60;99.90
61392;DHT22;47261;52.892;5.738;2023-07-20T00:55:15;15.50;99.90
61392;DHT22;47261;52.892;5.738;2023-07-20T00:57:41;15.40;99.90
61392;DHT22;47261;52.892;5.738;2023-07-20T01:00:07;15.40;99.90
61392;DHT22;47261;52.892;5.738;2023-07-20T01:02:33;15.40;99.90
61392;DHT22;47261;52.892;5.738;2023-07-20T01:04:58;15.30;99.90
61392;DHT22;47261;52.892;5.738;2023-07-20T01:07:34;15.30;99.90
61392;DHT22;47261;52.892;5.738;2023-07-20T01:10:15;15.30;99.90
61392;DHT22;47261;52.892;5.738;2023-07-20T01:12:46;15.20;99.90
61392;DHT22;47261;52.892;5.738;2023-07-20T01:15:12;15.20;99.90
61392;DHT22;47261;52.892;5.738;2023-07-20T01:17:38;15.20;99.90
61392;DHT22;47261;52.892;5.738;2023-07-20T01:20:04;15.10;99.90
61392;DHT22;47261;52.892;5.738;2023-07-20T01:22:58;15.10;99.90
61392;DHT22;47261;52.892;5.738;2023-07-20T01:33:34;14.80;99.90
61392;DHT22;47261;52.892;5.738;2023-07-20T01:36:01;14.70;99.90
61392;DHT22;47261;52.892;5.738;2023-07-20T01:38:28;14.70;99.90
61392;DHT22;47261;52.892;5.738;2023-07-20T01:40:55;14.70;99.90
61392;DHT22;47261;52.892;5.738;2023-07-20T01:43:21;14.60;99.90
61392;DHT22;47261;52.892;5.738;2023-07-20T01:45:47;14.60;99.90
61392;DHT22;47261;52.892;5.738;2023-07-20T01:48:13;14.60;99.90
61392;DHT22;47261;52.892;5.738;2023-07-20T01:50:38;14.60;99.90
61392;DHT22;47261;52.892;5.738;2023-07-20T01:53:04;14.50;99.90
61392;DHT22;47261;52.892;5.738;2023-07-20T01:55:30;14.50;99.90
61392;DHT22;47261;52.892;5.738;2023-07-20T01:57:55;14.50;99.90
61392;DHT22;47261;52.892;5.738;2023-07-20T02:00:22;14.50;99.90
61392;DHT22;47261;52.892;5.738;2023-07-20T02:02:50;14.50;99.90
61392;DHT22;47261;52.892;5.738;2023-07-20T02:05:16;14.40;99.90
61392;DHT22;47261;52.892;5.738;2023-07-20T02:07:42;14.40;99.90
61392;DHT22;47261;52.892;5.738;2023-07-20T02:10:08;14.30;99.90
61392;DHT22;47261;52.892;5.738;2023-07-20T02:12:33;14.40;99.90
61392;DHT22;47261;52.892;5.738;2023-07-20T02:14:59;14.30;99.90
61392;DHT22;47261;52.892;5.738;2023-07-20T02:17:25;14.30;99.90
61392;DHT22;47261;52.892;5.738;2023-07-20T02:19:52;14.30;99.90
61392;DHT22;47261;52.892;5.738;2023-07-20T02:22:18;14.30;99.90
61392;DHT22;47261;52.892;5.738;2023-07-20T02:24:44;14.30;99.90
61392;DHT22;47261;52.892;5.738;2023-07-20T02:27:09;14.20;99.90
61392;DHT22;47261;52.892;5.738;2023-07-20T02:29:35;14.20;99.90
61392;DHT22;47261;52.892;5.738;2023-07-20T02:32:02;14.20;99.90
61392;DHT22;47261;52.892;5.738;2023-07-20T02:34:27;14.20;99.90
61392;DHT22;47261;52.892;5.738;2023-07-20T02:36:54;14.20;99.90
61392;DHT22;47261;52.892;5.738;2023-07-20T02:39:22;14.10;99.90
61392;DHT22;47261;52.892;5.738;2023-07-20T02:41:47;14.20;99.90
61392;DHT22;47261;52.892;5.738;2023-07-20T02:44:14;14.20;99.90
61392;DHT22;47261;52.892;5.738;2023-07-20T02:46:40;14.10;99.90
61392;DHT22;47261;52.892;5.738;2023-07-20T02:49:06;14.10;99.90
61392;DHT22;47261;52.892;5.738;2023-07-20T02:51:31;14.10;99.90
61392;DHT22;47261;52.892;5.738;2023-07-20T02:53:57;14.10;99.90
61392;DHT22;47261;52.892;5.738;2023-07-20T02:56:23;14.10;99.90
61392;DHT22;47261;52.892;5.738;2023-07-20T02:58:48;14.00;99.90
61392;DHT22;47261;52.892;5.738;2023-07-20T03:01:14;14.00;99.90
61392;DHT22;47261;52.892;5.738;2023-07-20T03:03:41;14.00;99.90
61392;DHT22;47261;52.892;5.738;2023-07-20T03:06:13;14.00;99.90
61392;DHT22;47261;52.892;5.738;2023-07-20T03:08:40;13.90;99.90
61392;DHT22;47261;52.892;5.738;2023-07-20T03:11:07;13.90;99.90
61392;DHT22;47261;52.892;5.738;2023-07-20T03:13:33;13.80;99.90
61392;DHT22;47261;52.892;5.738;2023-07-20T03:15:58;13.80;99.90
61392;DHT22;47261;52.892;5.738;2023-07-20T03:18:24;13.80;99.90
61392;DHT22;47261;52.892;5.738;2023-07-20T03:20:50;13.70;99.90
61392;DHT22;47261;52.892;5.738;2023-07-20T03:23:15;13.60;99.90
61392;DHT22;47261;52.892;5.738;2023-07-20T03:25:42;13.50;99.90
61392;DHT22;47261;52.892;5.738;2023-07-20T03:28:08;13.50;99.90
61392;DHT22;47261;52.892;5.738;2023-07-20T03:30:34;13.50;99.90
61392;DHT22;47261;52.892;5.738;2023-07-20T03:33:00;13.40;99.90
61392;DHT22;47261;52.892;5.738;2023-07-20T03:35:25;13.40;99.90
61392;DHT22;47261;52.892;5.738;2023-07-20T03:37:52;13.30;99.90
61392;DHT22;47261;52.892;5.738;2023-07-20T03:40:17;13.30;99.90
61392;DHT22;47261;52.892;5.738;2023-07-20T03:42:43;13.20;99.90
61392;DHT22;47261;52.892;5.738;2023-07-20T03:45:09;13.20;99.90
61392;DHT22;47261;52.892;5.738;2023-07-20T03:47:34;13.20;99.90
61392;DHT22;47261;52.892;5.738;2023-07-20T03:50:00;13.10;99.90
61392;DHT22;47261;52.892;5.738;2023-07-20T03:52:26;13.10;99.90
61392;DHT22;47261;52.892;5.738;2023-07-20T03:54:51;13.10;99.90
61392;DHT22;47261;52.892;5.738;2023-07-20T03:57:17;13.10;99.90
61392;DHT22;47261;52.892;5.738;2023-07-20T03:59:47;13.10;99.90
61392;DHT22;47261;52.892;5.738;2023-07-20T04:02:13;13.10;99.90
61392;DHT22;47261;52.892;5.738;2023-07-20T04:04:40;13.10;99.90
61392;DHT22;47261;52.892;5.738;2023-07-20T04:07:06;13.20;99.90
61392;DHT22;47261;52.892;5.738;2023-07-20T04:09:33;13.10;99.90
61392;DHT22;47261;52.892;5.738;2023-07-20T04:11:58;13.10;99.90
61392;DHT22;47261;52.892;5.738;2023-07-20T04:14:24;13.20;99.90
61392;DHT22;47261;52.892;5.738;2023-07-20T04:16:50;13.20;99.90
61392;DHT22;47261;52.892;5.738;2023-07-20T04:19:17;13.20;99.90
61392;DHT22;47261;52.892;5.738;2023-07-20T04:21:43;13.30;99.90
61392;DHT22;47261;52.892;5.738;2023-07-20T04:24:09;13.30;99.90
61392;DHT22;47261;52.892;5.738;2023-07-20T04:26:35;13.30;99.90
61392;DHT22;47261;52.892;5.738;2023-07-20T04:29:01;13.30;99.90
61392;DHT22;47261;52.892;5.738;2023-07-20T04:31:26;13.30;99.90
61392;DHT22;47261;52.892;5.738;2023-07-20T04:33:52;13.30;99.90
61392;DHT22;47261;52.892;5.738;2023-07-20T04:36:18;13.30;99.90
61392;DHT22;47261;52.892;5.738;2023-07-20T04:38:48;13.20;99.90
61392;DHT22;47261;52.892;5.738;2023-07-20T04:41:13;13.30;99.90
61392;DHT22;47261;52.892;5.738;2023-07-20T04:43:43;13.30;99.90
61392;DHT22;47261;52.892;5.738;2023-07-20T04:46:12;13.40;99.90
61392;DHT22;47261;52.892;5.738;2023-07-20T04:48:38;13.40;99.90
61392;DHT22;47261;52.892;5.738;2023-07-20T04:51:04;13.40;99.90
61392;DHT22;47261;52.892;5.738;2023-07-20T04:53:29;13.50;99.90
61392;DHT22;47261;52.892;5.738;2023-07-20T04:55:56;13.50;99.90
61392;DHT22;47261;52.892;5.738;2023-07-20T04:58:22;13.60;99.90
61392;DHT22;47261;52.892;5.738;2023-07-20T05:00:49;13.70;99.90
61392;DHT22;47261;52.892;5.738;2023-07-20T05:03:15;13.70;99.90
61392;DHT22;47261;52.892;5.738;2023-07-20T05:05:41;13.80;99.90
61392;DHT22;47261;52.892;5.738;2023-07-20T05:08:06;13.80;99.90
61392;DHT22;47261;52.892;5.738;2023-07-20T05:10:32;13.90;99.90
61392;DHT22;47261;52.892;5.738;2023-07-20T05:12:58;14.00;99.90
61392;DHT22;47261;52.892;5.738;2023-07-20T05:15:24;14.10;99.90
61392;DHT22;47261;52.892;5.738;2023-07-20T05:17:50;14.10;99.90
61392;DHT22;47261;52.892;5.738;2023-07-20T05:20:16;14.20;99.90
61392;DHT22;47261;52.892;5.738;2023-07-20T05:22:42;14.30;99.90
61392;DHT22;47261;52.892;5.738;2023-07-20T05:25:08;14.40;99.90
61392;DHT22;47261;52.892;5.738;2023-07-20T05:27:36;14.50;99.90
61392;DHT22;47261;52.892;5.738;2023-07-20T05:30:02;14.60;99.90
61392;DHT22;47261;52.892;5.738;2023-07-20T05:32:28;14.70;99.90
61392;DHT22;47261;52.892;5.738;2023-07-20T05:34:54;14.90;99.90
61392;DHT22;47261;52.892;5.738;2023-07-20T05:37:20;15.20;99.90
61392;DHT22;47261;52.892;5.738;2023-07-20T05:39:46;15.80;99.90
61392;DHT22;47261;52.892;5.738;2023-07-20T05:42:12;16.50;99.70
61392;DHT22;47261;52.892;5.738;2023-07-20T05:44:38;17.30;98.50
61392;DHT22;47261;52.892;5.738;2023-07-20T05:47:04;18.00;97.30
61392;DHT22;47261;52.892;5.738;2023-07-20T05:49:30;18.60;96.30
61392;DHT22;47261;52.892;5.738;2023-07-20T05:51:56;19.30;95.30
61392;DHT22;47261;52.892;5.738;2023-07-20T05:54:23;19.80;94.40
61392;DHT22;47261;52.892;5.738;2023-07-20T05:56:49;20.40;93.70
61392;DHT22;47261;52.892;5.738;2023-07-20T05:59:15;20.70;93.30
61392;DHT22;47261;52.892;5.738;2023-07-20T06:01:41;21.00;93.10
61392;DHT22;47261;52.892;5.738;2023-07-20T06:04:07;21.20;92.70
61392;DHT22;47261;52.892;5.738;2023-07-20T06:06:33;21.20;92.60
61392;DHT22;47261;52.892;5.738;2023-07-20T06:08:59;21.10;92.70
61392;DHT22;47261;52.892;5.738;2023-07-20T06:11:28;20.90;93.00
61392;DHT22;47261;52.892;5.738;2023-07-20T06:13:54;20.70;93.50
61392;DHT22;47261;52.892;5.738;2023-07-20T06:16:19;20.50;93.80
61392;DHT22;47261;52.892;5.738;2023-07-20T06:18:45;20.30;94.00
61392;DHT22;47261;52.892;5.738;2023-07-20T06:21:11;20.10;94.10
61392;DHT22;47261;52.892;5.738;2023-07-20T06:23:37;19.80;94.20
61392;DHT22;47261;52.892;5.738;2023-07-20T06:26:03;19.50;94.30
61392;DHT22;47261;52.892;5.738;2023-07-20T06:28:28;19.20;94.40
61392;DHT22;47261;52.892;5.738;2023-07-20T06:31:02;19.00;94.60
61392;DHT22;47261;52.892;5.738;2023-07-20T06:33:29;18.90;94.80
61392;DHT22;47261;52.892;5.738;2023-07-20T06:35:54;18.80;95.00
61392;DHT22;47261;52.892;5.738;2023-07-20T06:38:22;18.80;95.00
61392;DHT22;47261;52.892;5.738;2023-07-20T06:40:49;18.80;94.90
61392;DHT22;47261;52.892;5.738;2023-07-20T06:43:15;18.70;94.70
61392;DHT22;47261;52.892;5.738;2023-07-20T06:45:41;18.70;94.60
61392;DHT22;47261;52.892;5.738;2023-07-20T06:48:07;18.60;94.60
61392;DHT22;47261;52.892;5.738;2023-07-20T06:50:32;18.50;94.50
61392;DHT22;47261;52.892;5.738;2023-07-20T06:52:58;18.40;94.60
61392;DHT22;47261;52.892;5.738;2023-07-20T06:55:25;18.40;94.60
61392;DHT22;47261;52.892;5.738;2023-07-20T06:57:51;18.30;94.70
61392;DHT22;47261;52.892;5.738;2023-07-20T07:00:17;18.30;94.90
61392;DHT22;47261;52.892;5.738;2023-07-20T07:02:43;18.30;94.90
61392;DHT22;47261;52.892;5.738;2023-07-20T07:05:09;18.40;95.00
61392;DHT22;47261;52.892;5.738;2023-07-20T07:07:34;18.50;95.00
61392;DHT22;47261;52.892;5.738;2023-07-20T07:10:01;18.60;94.90
61392;DHT22;47261;52.892;5.738;2023-07-20T07:12:29;18.70;94.70
61392;DHT22;47261;52.892;5.738;2023-07-20T07:14:55;18.90;94.70
61392;DHT22;47261;52.892;5.738;2023-07-20T07:17:20;19.00;94.60
61392;DHT22;47261;52.892;5.738;2023-07-20T07:19:46;19.20;94.50
61392;DHT22;47261;52.892;5.738;2023-07-20T07:22:12;19.40;94.50
61392;DHT22;47261;52.892;5.738;2023-07-20T07:24:38;19.60;94.20
61392;DHT22;47261;52.892;5.738;2023-07-20T07:27:06;19.80;93.80
61392;DHT22;47261;52.892;5.738;2023-07-20T07:29:31;19.90;93.50
61392;DHT22;47261;52.892;5.738;2023-07-20T07:31:57;20.00;93.40
61392;DHT22;47261;52.892;5.738;2023-07-20T07:34:23;20.00;93.30
61392;DHT22;47261;52.892;5.738;2023-07-20T07:36:49;20.00;93.30
61392;DHT22;47261;52.892;5.738;2023-07-20T07:39:15;20.00;93.30
61392;DHT22;47261;52.892;5.738;2023-07-20T07:41:41;20.10;93.30
61392;DHT22;47261;52.892;5.738;2023-07-20T07:44:06;20.10;93.30
61392;DHT22;47261;52.892;5.738;2023-07-20T07:46:32;20.10;93.30
61392;DHT22;47261;52.892;5.738;2023-07-20T07:48:58;20.10;93.40
61392;DHT22;47261;52.892;5.738;2023-07-20T07:51:24;20.10;93.40
61392;DHT22;47261;52.892;5.738;2023-07-20T07:53:49;20.20;93.40
61392;DHT22;47261;52.892;5.738;2023-07-20T07:56:15;20.30;93.30
61392;DHT22;47261;52.892;5.738;2023-07-20T07:58:42;20.40;93.20
61392;DHT22;47261;52.892;5.738;2023-07-20T08:01:08;20.50;93.00
61392;DHT22;47261;52.892;5.738;2023-07-20T08:03:34;20.60;92.70
61392;DHT22;47261;52.892;5.738;2023-07-20T08:06:01;20.70;92.30
61392;DHT22;47261;52.892;5.738;2023-07-20T08:08:31;20.80;92.10
61392;DHT22;47261;52.892;5.738;2023-07-20T08:10:57;20.80;91.90
61392;DHT22;47261;52.892;5.738;2023-07-20T08:13:23;20.90;91.70
61392;DHT22;47261;52.892;5.738;2023-07-20T08:15:50;20.90;91.60
61392;DHT22;47261;52.892;5.738;2023-07-20T08:18:19;21.00;91.50
61392;DHT22;47261;52.892;5.738;2023-07-20T08:20:45;21.00;91.30
61392;DHT22;47261;52.892;5.738;2023-07-20T08:23:12;21.00;91.00
61392;DHT22;47261;52.892;5.738;2023-07-20T08:25:38;21.00;90.80
61392;DHT22;47261;52.892;5.738;2023-07-20T08:28:07;21.10;90.60
61392;DHT22;47261;52.892;5.738;2023-07-20T08:30:47;21.10;90.40
61392;DHT22;47261;52.892;5.738;2023-07-20T08:33:14;21.20;90.00
61392;DHT22;47261;52.892;5.738;2023-07-20T08:35:41;21.30;90.10
61392;DHT22;47261;52.892;5.738;2023-07-20T08:38:06;21.50;90.00
61392;DHT22;47261;52.892;5.738;2023-07-20T08:40:35;21.70;89.20
61392;DHT22;47261;52.892;5.738;2023-07-20T08:43:04;21.80;87.90
61392;DHT22;47261;52.892;5.738;2023-07-20T08:45:33;21.90;87.20
61392;DHT22;47261;52.892;5.738;2023-07-20T08:48:01;21.90;86.70
61392;DHT22;47261;52.892;5.738;2023-07-20T08:50:31;21.80;86.80
61392;DHT22;47261;52.892;5.738;2023-07-20T08:52:58;21.60;86.30
61392;DHT22;47261;52.892;5.738;2023-07-20T08:55:26;21.40;86.20
61392;DHT22;47261;52.892;5.738;2023-07-20T08:57:56;21.20;86.70
61392;DHT22;47261;52.892;5.738;2023-07-20T09:00:23;21.20;87.90
61392;DHT22;47261;52.892;5.738;2023-07-20T09:02:52;21.30;88.30
61392;DHT22;47261;52.892;5.738;2023-07-20T09:05:23;21.50;87.70
61392;DHT22;47261;52.892;5.738;2023-07-20T09:07:49;21.70;87.30
61392;DHT22;47261;52.892;5.738;2023-07-20T09:10:15;21.80;86.70
61392;DHT22;47261;52.892;5.738;2023-07-20T09:12:44;21.80;85.40
61392;DHT22;47261;52.892;5.738;2023-07-20T09:15:11;21.70;84.70
61392;DHT22;47261;52.892;5.738;2023-07-20T09:17:37;21.80;84.90
61392;DHT22;47261;52.892;5.738;2023-07-20T09:20:07;21.90;85.10
61392;DHT22;47261;52.892;5.738;2023-07-20T09:22:39;22.20;85.00
61392;DHT22;47261;52.892;5.738;2023-07-20T09:25:23;22.50;84.10
61392;DHT22;47261;52.892;5.738;2023-07-20T09:27:49;22.80;81.50
61392;DHT22;47261;52.892;5.738;2023-07-20T09:30:16;23.00;81.50
61392;DHT22;47261;52.892;5.738;2023-07-20T09:32:45;23.10;77.00
61392;DHT22;47261;52.892;5.738;2023-07-20T09:35:19;23.40;78.30
61392;DHT22;47261;52.892;5.738;2023-07-20T09:37:57;23.60;78.60
61392;DHT22;47261;52.892;5.738;2023-07-20T09:40:25;23.90;77.10
61392;DHT22;47261;52.892;5.738;2023-07-20T09:42:52;24.20;75.80
61392;DHT22;47261;52.892;5.738;2023-07-20T09:45:20;24.40;75.70
61392;DHT22;47261;52.892;5.738;2023-07-20T09:47:46;24.50;75.90
61392;DHT22;47261;52.892;5.738;2023-07-20T09:50:12;24.40;73.70
61392;DHT22;47261;52.892;5.738;2023-07-20T09:52:38;24.20;74.00
61392;DHT22;47261;52.892;5.738;2023-07-20T09:55:09;24.10;75.50
61392;DHT22;47261;52.892;5.738;2023-07-20T09:57:35;24.10;76.10
61392;DHT22;47261;52.892;5.738;2023-07-20T10:00:03;24.20;74.30
61392;DHT22;47261;52.892;5.738;2023-07-20T10:02:34;24.30;71.60
61392;DHT22;47261;52.892;5.738;2023-07-20T10:05:03;24.40;71.40
61392;DHT22;47261;52.892;5.738;2023-07-20T10:07:36;24.50;70.50
61392;DHT22;47261;52.892;5.738;2023-07-20T10:10:06;24.60;69.50
61392;DHT22;47261;52.892;5.738;2023-07-20T10:12:33;24.30;68.50
61392;DHT22;47261;52.892;5.738;2023-07-20T10:15:28;24.00;66.60
61392;DHT22;47261;52.892;5.738;2023-07-20T10:18:04;23.70;68.50
61392;DHT22;47261;52.892;5.738;2023-07-20T10:20:36;23.50;73.40
61392;DHT22;47261;52.892;5.738;2023-07-20T10:23:03;23.40;74.10
61392;DHT22;47261;52.892;5.738;2023-07-20T10:25:29;23.30;73.60
61392;DHT22;47261;52.892;5.738;2023-07-20T10:27:57;23.10;74.60
61392;DHT22;47261;52.892;5.738;2023-07-20T10:30:24;22.90;74.80
61392;DHT22;47261;52.892;5.738;2023-07-20T10:32:51;22.60;76.70
61392;DHT22;47261;52.892;5.738;2023-07-20T10:35:18;22.50;78.10
61392;DHT22;47261;52.892;5.738;2023-07-20T10:37:53;22.60;79.30
61392;DHT22;47261;52.892;5.738;2023-07-20T10:42:51;23.10;77.60
61392;DHT22;47261;52.892;5.738;2023-07-20T10:45:19;23.30;75.70
61392;DHT22;47261;52.892;5.738;2023-07-20T10:47:46;23.10;73.90
61392;DHT22;47261;52.892;5.738;2023-07-20T10:50:12;22.90;73.20
61392;DHT22;47261;52.892;5.738;2023-07-20T10:52:40;22.80;74.10
61392;DHT22;47261;52.892;5.738;2023-07-20T10:55:18;22.80;73.00
61392;DHT22;47261;52.892;5.738;2023-07-20T10:58:08;22.80;74.10
61392;DHT22;47261;52.892;5.738;2023-07-20T11:00:35;23.00;74.20
61392;DHT22;47261;52.892;5.738;2023-07-20T11:03:01;23.20;73.50
61392;DHT22;47261;52.892;5.738;2023-07-20T11:05:38;23.30;72.10
61392;DHT22;47261;52.892;5.738;2023-07-20T11:08:11;23.50;70.10
61392;DHT22;47261;52.892;5.738;2023-07-20T11:10:37;23.60;69.70
61392;DHT22;47261;52.892;5.738;2023-07-20T11:13:33;23.60;68.50
61392;DHT22;47261;52.892;5.738;2023-07-20T11:18:28;23.30;69.90
61392;DHT22;47261;52.892;5.738;2023-07-20T11:20:54;23.10;70.50
61392;DHT22;47261;52.892;5.738;2023-07-20T11:23:20;22.70;71.60
61392;DHT22;47261;52.892;5.738;2023-07-20T11:25:46;22.40;74.30
61392;DHT22;47261;52.892;5.738;2023-07-20T11:28:12;22.10;75.00
61392;DHT22;47261;52.892;5.738;2023-07-20T11:30:38;21.80;75.40
61392;DHT22;47261;52.892;5.738;2023-07-20T11:33:05;21.60;76.70
61392;DHT22;47261;52.892;5.738;2023-07-20T11:35:34;21.60;76.20
61392;DHT22;47261;52.892;5.738;2023-07-20T11:38:00;21.40;75.50
61392;DHT22;47261;52.892;5.738;2023-07-20T11:40:26;21.30;75.80
61392;DHT22;47261;52.892;5.738;2023-07-20T11:42:53;21.20;75.20
61392;DHT22;47261;52.892;5.738;2023-07-20T11:45:19;21.10;74.80
61392;DHT22;47261;52.892;5.738;2023-07-20T11:47:45;20.90;76.60
61392;DHT22;47261;52.892;5.738;2023-07-20T11:50:11;20.80;76.80
61392;DHT22;47261;52.892;5.738;2023-07-20T11:52:39;20.60;78.50
61392;DHT22;47261;52.892;5.738;2023-07-20T11:55:06;20.50;80.70
61392;DHT22;47261;52.892;5.738;2023-07-20T11:57:32;20.40;82.60
61392;DHT22;47261;52.892;5.738;2023-07-20T12:00:02;20.50;83.50
61392;DHT22;47261;52.892;5.738;2023-07-20T12:02:34;20.70;82.00
61392;DHT22;47261;52.892;5.738;2023-07-20T12:05:00;20.70;81.40
61392;DHT22;47261;52.892;5.738;2023-07-20T12:07:28;20.70;79.50
61392;DHT22;47261;52.892;5.738;2023-07-20T12:10:07;20.70;78.90
61392;DHT22;47261;52.892;5.738;2023-07-20T12:12:44;20.70;79.20
61392;DHT22;47261;52.892;5.738;2023-07-20T12:17:45;20.60;79.30
61392;DHT22;47261;52.892;5.738;2023-07-20T12:20:11;20.60;79.90
61392;DHT22;47261;52.892;5.738;2023-07-20T12:22:40;20.50;79.50
61392;DHT22;47261;52.892;5.738;2023-07-20T12:25:07;20.50;79.60
61392;DHT22;47261;52.892;5.738;2023-07-20T12:27:38;20.40;79.10
61392;DHT22;47261;52.892;5.738;2023-07-20T12:30:07;20.40;79.70
61392;DHT22;47261;52.892;5.738;2023-07-20T12:32:33;20.30;80.60
61392;DHT22;47261;52.892;5.738;2023-07-20T12:34:59;20.40;80.50
61392;DHT22;47261;52.892;5.738;2023-07-20T12:37:26;20.40;80.80
61392;DHT22;47261;52.892;5.738;2023-07-20T12:39:52;20.50;81.50
61392;DHT22;47261;52.892;5.738;2023-07-20T12:42:18;20.60;81.70
61392;DHT22;47261;52.892;5.738;2023-07-20T12:44:43;20.90;81.30
61392;DHT22;47261;52.892;5.738;2023-07-20T12:47:09;21.20;80.80
61392;DHT22;47261;52.892;5.738;2023-07-20T12:49:35;21.50;80.30
61392;DHT22;47261;52.892;5.738;2023-07-20T12:52:01;21.70;79.30
61392;DHT22;47261;52.892;5.738;2023-07-20T12:54:26;21.90;78.10
61392;DHT22;47261;52.892;5.738;2023-07-20T12:56:52;22.00;77.10
61392;DHT22;47261;52.892;5.738;2023-07-20T12:59:17;22.00;76.60
61392;DHT22;47261;52.892;5.738;2023-07-20T13:01:44;22.00;76.20
61392;DHT22;47261;52.892;5.738;2023-07-20T13:04:09;22.00;75.90
61392;DHT22;47261;52.892;5.738;2023-07-20T13:06:36;21.90;75.10
61392;DHT22;47261;52.892;5.738;2023-07-20T13:09:02;21.80;75.70
61392;DHT22;47261;52.892;5.738;2023-07-20T13:11:28;21.70;75.40
61392;DHT22;47261;52.892;5.738;2023-07-20T13:13:54;21.70;75.30
61392;DHT22;47261;52.892;5.738;2023-07-20T13:16:19;21.70;74.90
61392;DHT22;47261;52.892;5.738;2023-07-20T13:18:45;21.70;74.90
61392;DHT22;47261;52.892;5.738;2023-07-20T13:21:11;21.90;74.60
61392;DHT22;47261;52.892;5.738;2023-07-20T13:23:37;22.00;73.90
61392;DHT22;47261;52.892;5.738;2023-07-20T13:26:04;22.30;73.70
61392;DHT22;47261;52.892;5.738;2023-07-20T13:28:30;22.40;72.70
61392;DHT22;47261;52.892;5.738;2023-07-20T13:30:56;22.50;71.40
61392;DHT22;47261;52.892;5.738;2023-07-20T13:33:21;22.60;71.40
61392;DHT22;47261;52.892;5.738;2023-07-20T13:35:47;22.60;70.60
61392;DHT22;47261;52.892;5.738;2023-07-20T13:38:13;22.80;71.00
61392;DHT22;47261;52.892;5.738;2023-07-20T13:40:38;23.00;71.00
61392;DHT22;47261;52.892;5.738;2023-07-20T13:43:04;23.10;70.80
61392;DHT22;47261;52.892;5.738;2023-07-20T13:45:30;23.10;68.20
61392;DHT22;47261;52.892;5.738;2023-07-20T13:47:55;23.00;67.90
61392;DHT22;47261;52.892;5.738;2023-07-20T13:50:21;22.90;68.80
61392;DHT22;47261;52.892;5.738;2023-07-20T13:52:47;22.80;69.10
61392;DHT22;47261;52.892;5.738;2023-07-20T13:55:12;22.80;68.60
61392;DHT22;47261;52.892;5.738;2023-07-20T13:57:38;22.90;69.60
61392;DHT22;47261;52.892;5.738;2023-07-20T14:00:04;23.00;69.30
61392;DHT22;47261;52.892;5.738;2023-07-20T14:02:33;23.10;68.80
61392;DHT22;47261;52.892;5.738;2023-07-20T14:04:59;23.20;68.40
61392;DHT22;47261;52.892;5.738;2023-07-20T14:07:25;23.30;68.50
61392;DHT22;47261;52.892;5.738;2023-07-20T14:09:50;23.30;68.30
61392;DHT22;47261;52.892;5.738;2023-07-20T14:12:16;23.50;68.10
61392;DHT22;47261;52.892;5.738;2023-07-20T14:14:42;23.60;68.00
61392;DHT22;47261;52.892;5.738;2023-07-20T14:17:07;23.70;68.20
61392;DHT22;47261;52.892;5.738;2023-07-20T14:19:33;23.80;67.90
61392;DHT22;47261;52.892;5.738;2023-07-20T14:21:59;23.80;67.50
61392;DHT22;47261;52.892;5.738;2023-07-20T14:24:25;23.80;67.30
61392;DHT22;47261;52.892;5.738;2023-07-20T14:26:51;23.70;67.10
61392;DHT22;47261;52.892;5.738;2023-07-20T14:29:17;23.60;66.70
61392;DHT22;47261;52.892;5.738;2023-07-20T14:31:45;23.50;66.70
61392;DHT22;47261;52.892;5.738;2023-07-20T14:34:16;23.30;66.90
61392;DHT22;47261;52.892;5.738;2023-07-20T14:36:42;23.20;68.40
61392;DHT22;47261;52.892;5.738;2023-07-20T14:39:08;23.10;68.30
61392;DHT22;47261;52.892;5.738;2023-07-20T14:41:33;23.00;68.20
61392;DHT22;47261;52.892;5.738;2023-07-20T14:43:59;23.10;68.50
61392;DHT22;47261;52.892;5.738;2023-07-20T14:46:25;23.10;68.50
61392;DHT22;47261;52.892;5.738;2023-07-20T14:48:50;23.20;67.90
61392;DHT22;47261;52.892;5.738;2023-07-20T14:51:17;23.20;67.80
61392;DHT22;47261;52.892;5.738;2023-07-20T14:53:43;23.20;67.90
61392;DHT22;47261;52.892;5.738;2023-07-20T14:56:08;23.20;67.80
61392;DHT22;47261;52.892;5.738;2023-07-20T14:58:34;23.20;67.90
61392;DHT22;47261;52.892;5.738;2023-07-20T15:01:00;23.10;67.70
61392;DHT22;47261;52.892;5.738;2023-07-20T15:03:25;23.10;68.00
61392;DHT22;47261;52.892;5.738;2023-07-20T15:05:51;23.00;68.10
61392;DHT22;47261;52.892;5.738;2023-07-20T15:08:18;23.00;68.60
61392;DHT22;47261;52.892;5.738;2023-07-20T15:10:45;23.00;69.30
61392;DHT22;47261;52.892;5.738;2023-07-20T15:13:12;23.10;68.90
61392;DHT22;47261;52.892;5.738;2023-07-20T15:15:38;23.00;68.40
61392;DHT22;47261;52.892;5.738;2023-07-20T15:18:03;23.00;68.40
61392;DHT22;47261;52.892;5.738;2023-07-20T15:20:29;22.90;68.80
61392;DHT22;47261;52.892;5.738;2023-07-20T15:22:57;22.90;68.80
61392;DHT22;47261;52.892;5.738;2023-07-20T15:25:23;22.90;69.10
61392;DHT22;47261;52.892;5.738;2023-07-20T15:27:48;22.80;69.20
61392;DHT22;47261;52.892;5.738;2023-07-20T15:30:14;22.80;69.40
61392;DHT22;47261;52.892;5.738;2023-07-20T15:32:40;22.70;69.60
61392;DHT22;47261;52.892;5.738;2023-07-20T15:35:09;22.60;69.70
61392;DHT22;47261;52.892;5.738;2023-07-20T15:37:35;22.60;69.90
61392;DHT22;47261;52.892;5.738;2023-07-20T15:40:02;22.60;70.10
61392;DHT22;47261;52.892;5.738;2023-07-20T15:42:31;22.70;69.60
61392;DHT22;47261;52.892;5.738;2023-07-20T15:44:57;22.80;69.70